sensor_id;sensor_type;location;lat;lon;timestamp;P1;durP1;ratioP1;P2;durP2;ratioP2
62179;SDS011;48172;53.374;10.722;2022-08-19T00:01:55;4.20;;;3.78;;
62179;SDS011;48172;53.374;10.722;2022-08-19T00:04:26;4.38;;;3.97;;
62179;SDS011;48172;53.374;10.722;2022-08-19T00:06:55;4.00;;;3.70;;
62179;SDS011;48172;53.374;10.722;2022-08-19T00:09:23;3.83;;;3.53;;
62179;SDS011;48172;53.374;10.722;2022-08-19T00:11:51;4.43;;;4.03;;
62179;SDS011;48172;53.374;10.722;2022-08-19T00:14:19;4.30;;;4.00;;
62179;SDS011;48172;53.374;10.722;2022-08-19T00:16:47;4.07;;;3.75;;
62179;SDS011;48172;53.374;10.722;2022-08-19T00:19:15;4.00;;;3.70;;
62179;SDS011;48172;53.374;10.722;2022-08-19T00:21:42;4.03;;;3.72;;
62179;SDS011;48172;53.374;10.722;2022-08-19T00:24:10;3.88;;;3.58;;
62179;SDS011;48172;53.374;10.722;2022-08-19T00:26:38;4.07;;;3.72;;
62179;SDS011;48172;53.374;10.722;2022-08-19T00:29:05;3.85;;;3.55;;
62179;SDS011;48172;53.374;10.722;2022-08-19T00:31:33;4.10;;;3.80;;
62179;SDS011;48172;53.374;10.722;2022-08-19T00:34:00;3.75;;;3.45;;
62179;SDS011;48172;53.374;10.722;2022-08-19T00:36:26;3.95;;;3.65;;
62179;SDS011;48172;53.374;10.722;2022-08-19T00:38:55;4.25;;;3.85;;
62179;SDS011;48172;53.374;10.722;2022-08-19T00:41:22;3.95;;;3.55;;
62179;SDS011;48172;53.374;10.722;2022-08-19T00:44:25;4.13;;;3.83;;
62179;SDS011;48172;53.374;10.722;2022-08-19T00:46:53;4.18;;;3.88;;
62179;SDS011;48172;53.374;10.722;2022-08-19T00:52:23;3.92;;;3.63;;
62179;SDS011;48172;53.374;10.722;2022-08-19T00:54:55;4.38;;;3.97;;
62179;SDS011;48172;53.374;10.722;2022-08-19T00:57:28;4.30;;;4.00;;
62179;SDS011;48172;53.374;10.722;2022-08-19T01:00:06;3.60;;;3.30;;
62179;SDS011;48172;53.374;10.722;2022-08-19T01:02:37;4.18;;;3.65;;
62179;SDS011;48172;53.374;10.722;2022-08-19T01:05:06;4.25;;;3.85;;
62179;SDS011;48172;53.374;10.722;2022-08-19T01:07:35;4.35;;;4.00;;
62179;SDS011;48172;53.374;10.722;2022-08-19T01:10:05;4.07;;;3.78;;
62179;SDS011;48172;53.374;10.722;2022-08-19T01:12:35;3.80;;;3.50;;
62179;SDS011;48172;53.374;10.722;2022-08-19T01:15:02;3.97;;;3.67;;
62179;SDS011;48172;53.374;10.722;2022-08-19T01:17:29;4.28;;;3.90;;
62179;SDS011;48172;53.374;10.722;2022-08-19T01:19:56;4.07;;;3.78;;
62179;SDS011;48172;53.374;10.722;2022-08-19T01:24:58;4.15;;;3.83;;
62179;SDS011;48172;53.374;10.722;2022-08-19T01:27:24;3.85;;;3.55;;
62179;SDS011;48172;53.374;10.722;2022-08-19T01:29:54;3.70;;;3.40;;
62179;SDS011;48172;53.374;10.722;2022-08-19T01:32:22;4.03;;;3.72;;
62179;SDS011;48172;53.374;10.722;2022-08-19T01:34:59;4.18;;;3.70;;
62179;SDS011;48172;53.374;10.722;2022-08-19T01:37:28;3.80;;;3.50;;
62179;SDS011;48172;53.374;10.722;2022-08-19T01:39:56;3.83;;;3.53;;
62179;SDS011;48172;53.374;10.722;2022-08-19T01:42:23;4.35;;;4.05;;
62179;SDS011;48172;53.374;10.722;2022-08-19T01:44:56;4.20;;;3.90;;
62179;SDS011;48172;53.374;10.722;2022-08-19T01:47:22;3.72;;;3.42;;
62179;SDS011;48172;53.374;10.722;2022-08-19T01:49:49;4.20;;;3.80;;
62179;SDS011;48172;53.374;10.722;2022-08-19T01:52:15;4.05;;;3.65;;
62179;SDS011;48172;53.374;10.722;2022-08-19T01:54:42;4.20;;;3.50;;
62179;SDS011;48172;53.374;10.722;2022-08-19T01:57:10;3.83;;;3.53;;
62179;SDS011;48172;53.374;10.722;2022-08-19T01:59:39;4.03;;;3.72;;
62179;SDS011;48172;53.374;10.722;2022-08-19T02:02:07;3.92;;;3.63;;
62179;SDS011;48172;53.374;10.722;2022-08-19T02:04:35;4.28;;;3.97;;
62179;SDS011;48172;53.374;10.722;2022-08-19T02:07:04;4.40;;;4.00;;
62179;SDS011;48172;53.374;10.722;2022-08-19T02:09:31;4.20;;;3.80;;
62179;SDS011;48172;53.374;10.722;2022-08-19T02:11:58;3.80;;;3.50;;
62179;SDS011;48172;53.374;10.722;2022-08-19T02:14:24;4.45;;;4.05;;
62179;SDS011;48172;53.374;10.722;2022-08-19T02:16:51;4.30;;;3.90;;
62179;SDS011;48172;53.374;10.722;2022-08-19T02:19:17;4.18;;;3.88;;
62179;SDS011;48172;53.374;10.722;2022-08-19T02:21:44;4.40;;;3.95;;
62179;SDS011;48172;53.374;10.722;2022-08-19T02:24:11;4.38;;;3.90;;
62179;SDS011;48172;53.374;10.722;2022-08-19T02:26:38;4.78;;;4.38;;
62179;SDS011;48172;53.374;10.722;2022-08-19T02:29:05;4.20;;;3.90;;
62179;SDS011;48172;53.374;10.722;2022-08-19T02:31:31;4.43;;;4.03;;
62179;SDS011;48172;53.374;10.722;2022-08-19T02:33:58;4.15;;;3.75;;
62179;SDS011;48172;53.374;10.722;2022-08-19T02:36:25;3.95;;;3.65;;
62179;SDS011;48172;53.374;10.722;2022-08-19T02:38:51;3.75;;;3.45;;
62179;SDS011;48172;53.374;10.722;2022-08-19T02:41:22;4.05;;;3.75;;
62179;SDS011;48172;53.374;10.722;2022-08-19T02:43:57;4.10;;;3.80;;
62179;SDS011;48172;53.374;10.722;2022-08-19T02:46:46;4.13;;;3.83;;
62179;SDS011;48172;53.374;10.722;2022-08-19T02:49:13;4.60;;;4.20;;
62179;SDS011;48172;53.374;10.722;2022-08-19T02:51:43;4.22;;;3.92;;
62179;SDS011;48172;53.374;10.722;2022-08-19T02:54:12;4.20;;;3.90;;
62179;SDS011;48172;53.374;10.722;2022-08-19T02:56:41;4.05;;;3.75;;
62179;SDS011;48172;53.374;10.722;2022-08-19T02:59:08;4.07;;;3.78;;
62179;SDS011;48172;53.374;10.722;2022-08-19T03:01:37;4.40;;;4.05;;
62179;SDS011;48172;53.374;10.722;2022-08-19T03:04:09;4.43;;;4.10;;
62179;SDS011;48172;53.374;10.722;2022-08-19T03:06:38;4.50;;;4.18;;
62179;SDS011;48172;53.374;10.722;2022-08-19T03:09:10;4.68;;;4.28;;
62179;SDS011;48172;53.374;10.722;2022-08-19T03:11:37;4.72;;;4.32;;
62179;SDS011;48172;53.374;10.722;2022-08-19T03:14:05;4.30;;;4.00;;
62179;SDS011;48172;53.374;10.722;2022-08-19T03:16:34;4.80;;;4.40;;
62179;SDS011;48172;53.374;10.722;2022-08-19T03:19:08;4.80;;;4.40;;
62179;SDS011;48172;53.374;10.722;2022-08-19T03:21:35;4.55;;;4.10;;
62179;SDS011;48172;53.374;10.722;2022-08-19T03:24:02;4.68;;;4.18;;
62179;SDS011;48172;53.374;10.722;2022-08-19T03:26:32;4.60;;;4.20;;
62179;SDS011;48172;53.374;10.722;2022-08-19T03:29:03;4.70;;;4.30;;
62179;SDS011;48172;53.374;10.722;2022-08-19T03:31:31;3.97;;;3.67;;
62179;SDS011;48172;53.374;10.722;2022-08-19T03:34:19;4.57;;;4.18;;
62179;SDS011;48172;53.374;10.722;2022-08-19T03:36:47;4.72;;;4.32;;
62179;SDS011;48172;53.374;10.722;2022-08-19T03:39:14;4.50;;;4.10;;
62179;SDS011;48172;53.374;10.722;2022-08-19T03:41:42;4.90;;;4.50;;
62179;SDS011;48172;53.374;10.722;2022-08-19T03:44:13;4.75;;;4.35;;
62179;SDS011;48172;53.374;10.722;2022-08-19T03:46:44;4.72;;;4.32;;
62179;SDS011;48172;53.374;10.722;2022-08-19T03:49:11;4.95;;;4.47;;
62179;SDS011;48172;53.374;10.722;2022-08-19T03:51:40;4.72;;;4.32;;
62179;SDS011;48172;53.374;10.722;2022-08-19T03:54:08;4.53;;;4.13;;
62179;SDS011;48172;53.374;10.722;2022-08-19T03:56:39;4.72;;;4.30;;
62179;SDS011;48172;53.374;10.722;2022-08-19T03:59:07;4.60;;;4.18;;
62179;SDS011;48172;53.374;10.722;2022-08-19T04:01:36;4.90;;;4.50;;
62179;SDS011;48172;53.374;10.722;2022-08-19T04:04:03;4.80;;;4.40;;
62179;SDS011;48172;53.374;10.722;2022-08-19T04:06:34;4.80;;;4.40;;
62179;SDS011;48172;53.374;10.722;2022-08-19T04:09:05;5.05;;;4.65;;
62179;SDS011;48172;53.374;10.722;2022-08-19T04:11:35;5.07;;;4.57;;
62179;SDS011;48172;53.374;10.722;2022-08-19T04:14:14;5.18;;;4.68;;
62179;SDS011;48172;53.374;10.722;2022-08-19T04:16:44;4.50;;;4.10;;
62179;SDS011;48172;53.374;10.722;2022-08-19T04:19:13;5.15;;;4.50;;
62179;SDS011;48172;53.374;10.722;2022-08-19T04:21:42;5.22;;;4.82;;
62179;SDS011;48172;53.374;10.722;2022-08-19T04:24:13;5.28;;;4.85;;
62179;SDS011;48172;53.374;10.722;2022-08-19T04:26:40;4.82;;;4.43;;
62179;SDS011;48172;53.374;10.722;2022-08-19T04:29:08;4.80;;;4.40;;
62179;SDS011;48172;53.374;10.722;2022-08-19T04:31:38;4.53;;;4.13;;
62179;SDS011;48172;53.374;10.722;2022-08-19T04:34:07;4.50;;;4.15;;
62179;SDS011;48172;53.374;10.722;2022-08-19T04:36:37;4.93;;;4.53;;
62179;SDS011;48172;53.374;10.722;2022-08-19T04:39:06;5.18;;;4.78;;
62179;SDS011;48172;53.374;10.722;2022-08-19T04:41:35;4.50;;;4.10;;
62179;SDS011;48172;53.374;10.722;2022-08-19T04:44:20;4.90;;;4.50;;
62179;SDS011;48172;53.374;10.722;2022-08-19T04:46:48;5.32;;;4.82;;
62179;SDS011;48172;53.374;10.722;2022-08-19T04:49:18;4.80;;;4.40;;
62179;SDS011;48172;53.374;10.722;2022-08-19T04:51:47;4.70;;;4.30;;
62179;SDS011;48172;53.374;10.722;2022-08-19T04:54:16;4.53;;;4.13;;
62179;SDS011;48172;53.374;10.722;2022-08-19T04:57:03;4.70;;;4.30;;
62179;SDS011;48172;53.374;10.722;2022-08-19T04:59:33;6.53;;;5.50;;
62179;SDS011;48172;53.374;10.722;2022-08-19T05:02:00;6.57;;;5.97;;
62179;SDS011;48172;53.374;10.722;2022-08-19T05:04:26;6.00;;;5.50;;
62179;SDS011;48172;53.374;10.722;2022-08-19T05:06:58;7.40;;;5.43;;
62179;SDS011;48172;53.374;10.722;2022-08-19T05:09:26;6.47;;;5.78;;
62179;SDS011;48172;53.374;10.722;2022-08-19T05:12:14;7.13;;;6.43;;
62179;SDS011;48172;53.374;10.722;2022-08-19T05:14:40;7.85;;;7.05;;
62179;SDS011;48172;53.374;10.722;2022-08-19T05:17:07;7.95;;;7.00;;
62179;SDS011;48172;53.374;10.722;2022-08-19T05:19:52;9.13;;;7.93;;
62179;SDS011;48172;53.374;10.722;2022-08-19T05:22:38;9.30;;;8.20;;
62179;SDS011;48172;53.374;10.722;2022-08-19T05:25:06;9.55;;;7.93;;
62179;SDS011;48172;53.374;10.722;2022-08-19T05:27:39;10.98;;;8.85;;
62179;SDS011;48172;53.374;10.722;2022-08-19T05:30:06;10.23;;;8.68;;
62179;SDS011;48172;53.374;10.722;2022-08-19T05:32:33;12.60;;;9.00;;
62179;SDS011;48172;53.374;10.722;2022-08-19T05:35:00;9.27;;;7.97;;
62179;SDS011;48172;53.374;10.722;2022-08-19T05:37:27;10.50;;;9.00;;
62179;SDS011;48172;53.374;10.722;2022-08-19T05:39:54;13.65;;;9.45;;
62179;SDS011;48172;53.374;10.722;2022-08-19T05:42:21;9.98;;;8.35;;
62179;SDS011;48172;53.374;10.722;2022-08-19T05:44:49;11.65;;;9.63;;
62179;SDS011;48172;53.374;10.722;2022-08-19T05:47:16;10.57;;;9.20;;
62179;SDS011;48172;53.374;10.722;2022-08-19T05:49:46;10.43;;;9.30;;
62179;SDS011;48172;53.374;10.722;2022-08-19T05:52:14;13.13;;;9.48;;
62179;SDS011;48172;53.374;10.722;2022-08-19T05:54:51;11.05;;;9.00;;
62179;SDS011;48172;53.374;10.722;2022-08-19T05:57:21;9.95;;;8.95;;
62179;SDS011;48172;53.374;10.722;2022-08-19T05:59:49;11.82;;;9.70;;
62179;SDS011;48172;53.374;10.722;2022-08-19T06:02:23;12.77;;;9.13;;
62179;SDS011;48172;53.374;10.722;2022-08-19T06:04:53;11.02;;;9.93;;
62179;SDS011;48172;53.374;10.722;2022-08-19T06:07:20;11.70;;;9.52;;
62179;SDS011;48172;53.374;10.722;2022-08-19T06:09:47;9.88;;;8.93;;
62179;SDS011;48172;53.374;10.722;2022-08-19T06:12:26;13.55;;;10.68;;
62179;SDS011;48172;53.374;10.722;2022-08-19T06:14:56;13.57;;;10.07;;
62179;SDS011;48172;53.374;10.722;2022-08-19T06:17:26;14.45;;;11.48;;
62179;SDS011;48172;53.374;10.722;2022-08-19T06:19:53;16.70;;;10.40;;
62179;SDS011;48172;53.374;10.722;2022-08-19T06:22:19;13.68;;;10.45;;
62179;SDS011;48172;53.374;10.722;2022-08-19T06:24:46;15.70;;;10.57;;
62179;SDS011;48172;53.374;10.722;2022-08-19T06:27:12;14.85;;;11.23;;
62179;SDS011;48172;53.374;10.722;2022-08-19T06:29:39;13.85;;;10.55;;
62179;SDS011;48172;53.374;10.722;2022-08-19T06:32:05;16.75;;;12.38;;
62179;SDS011;48172;53.374;10.722;2022-08-19T06:34:32;17.55;;;14.05;;
62179;SDS011;48172;53.374;10.722;2022-08-19T06:37:00;14.18;;;11.80;;
62179;SDS011;48172;53.374;10.722;2022-08-19T06:39:30;18.85;;;13.63;;
62179;SDS011;48172;53.374;10.722;2022-08-19T06:41:59;20.33;;;14.43;;
62179;SDS011;48172;53.374;10.722;2022-08-19T06:44:29;19.42;;;13.88;;
62179;SDS011;48172;53.374;10.722;2022-08-19T06:47:06;16.00;;;12.70;;
62179;SDS011;48172;53.374;10.722;2022-08-19T06:49:48;17.58;;;12.80;;
62179;SDS011;48172;53.374;10.722;2022-08-19T06:52:14;16.63;;;11.73;;
62179;SDS011;48172;53.374;10.722;2022-08-19T06:54:42;18.75;;;12.48;;
62179;SDS011;48172;53.374;10.722;2022-08-19T06:57:22;17.67;;;12.30;;
62179;SDS011;48172;53.374;10.722;2022-08-19T06:59:49;19.83;;;11.10;;
62179;SDS011;48172;53.374;10.722;2022-08-19T07:02:15;20.00;;;12.63;;
62179;SDS011;48172;53.374;10.722;2022-08-19T07:04:47;15.23;;;10.55;;
62179;SDS011;48172;53.374;10.722;2022-08-19T07:07:18;13.30;;;9.95;;
62179;SDS011;48172;53.374;10.722;2022-08-19T07:09:47;12.88;;;9.27;;
62179;SDS011;48172;53.374;10.722;2022-08-19T07:12:25;13.25;;;9.88;;
62179;SDS011;48172;53.374;10.722;2022-08-19T07:14:54;16.05;;;12.98;;
62179;SDS011;48172;53.374;10.722;2022-08-19T07:17:21;11.77;;;9.50;;
62179;SDS011;48172;53.374;10.722;2022-08-19T07:19:47;13.93;;;11.77;;
62179;SDS011;48172;53.374;10.722;2022-08-19T07:22:15;13.18;;;10.68;;
62179;SDS011;48172;53.374;10.722;2022-08-19T07:24:42;11.70;;;9.27;;
62179;SDS011;48172;53.374;10.722;2022-08-19T07:27:16;11.30;;;8.45;;
62179;SDS011;48172;53.374;10.722;2022-08-19T07:29:50;10.00;;;8.93;;
62179;SDS011;48172;53.374;10.722;2022-08-19T07:32:22;12.52;;;8.77;;
62179;SDS011;48172;53.374;10.722;2022-08-19T07:34:51;11.93;;;9.40;;
62179;SDS011;48172;53.374;10.722;2022-08-19T07:37:18;10.38;;;8.35;;
62179;SDS011;48172;53.374;10.722;2022-08-19T07:39:45;12.48;;;8.52;;
62179;SDS011;48172;53.374;10.722;2022-08-19T07:42:12;10.38;;;7.72;;
62179;SDS011;48172;53.374;10.722;2022-08-19T07:44:40;11.00;;;8.68;;
62179;SDS011;48172;53.374;10.722;2022-08-19T07:47:15;9.43;;;7.90;;
62179;SDS011;48172;53.374;10.722;2022-08-19T07:50:03;10.73;;;7.70;;
62179;SDS011;48172;53.374;10.722;2022-08-19T07:52:32;8.95;;;7.70;;
62179;SDS011;48172;53.374;10.722;2022-08-19T07:54:59;11.70;;;8.02;;
62179;SDS011;48172;53.374;10.722;2022-08-19T07:57:29;9.00;;;7.40;;
62179;SDS011;48172;53.374;10.722;2022-08-19T07:59:56;9.82;;;7.78;;
62179;SDS011;48172;53.374;10.722;2022-08-19T08:02:22;9.77;;;7.90;;
62179;SDS011;48172;53.374;10.722;2022-08-19T08:04:49;16.23;;;13.63;;
62179;SDS011;48172;53.374;10.722;2022-08-19T08:07:34;16.52;;;14.73;;
62179;SDS011;48172;53.374;10.722;2022-08-19T08:10:19;16.50;;;13.63;;
62179;SDS011;48172;53.374;10.722;2022-08-19T08:12:49;14.23;;;10.68;;
62179;SDS011;48172;53.374;10.722;2022-08-19T08:15:35;11.30;;;9.75;;
62179;SDS011;48172;53.374;10.722;2022-08-19T08:18:08;12.73;;;9.60;;
62179;SDS011;48172;53.374;10.722;2022-08-19T08:20:35;10.57;;;8.68;;
62179;SDS011;48172;53.374;10.722;2022-08-19T08:23:01;10.30;;;8.95;;
62179;SDS011;48172;53.374;10.722;2022-08-19T08:25:47;10.35;;;8.75;;
62179;SDS011;48172;53.374;10.722;2022-08-19T08:28:18;12.82;;;9.88;;
62179;SDS011;48172;53.374;10.722;2022-08-19T08:30:46;13.85;;;8.50;;
62179;SDS011;48172;53.374;10.722;2022-08-19T08:33:19;12.57;;;10.70;;
62179;SDS011;48172;53.374;10.722;2022-08-19T08:35:59;22.42;;;19.05;;
62179;SDS011;48172;53.374;10.722;2022-08-19T08:38:28;23.80;;;20.60;;
62179;SDS011;48172;53.374;10.722;2022-08-19T08:41:06;21.38;;;16.38;;
62179;SDS011;48172;53.374;10.722;2022-08-19T08:43:46;15.32;;;13.25;;
62179;SDS011;48172;53.374;10.722;2022-08-19T08:46:15;14.25;;;11.85;;
62179;SDS011;48172;53.374;10.722;2022-08-19T08:51:42;16.65;;;10.75;;
62179;SDS011;48172;53.374;10.722;2022-08-19T08:54:24;16.48;;;12.07;;
62179;SDS011;48172;53.374;10.722;2022-08-19T08:57:00;15.05;;;10.43;;
62179;SDS011;48172;53.374;10.722;2022-08-19T08:59:30;12.73;;;10.02;;
62179;SDS011;48172;53.374;10.722;2022-08-19T09:02:00;11.80;;;10.32;;
62179;SDS011;48172;53.374;10.722;2022-08-19T09:04:27;14.55;;;10.40;;
62179;SDS011;48172;53.374;10.722;2022-08-19T09:07:07;13.80;;;9.63;;
62179;SDS011;48172;53.374;10.722;2022-08-19T09:10:10;15.35;;;12.52;;
62179;SDS011;48172;53.374;10.722;2022-08-19T09:15:36;20.20;;;13.43;;
62179;SDS011;48172;53.374;10.722;2022-08-19T09:18:17;15.60;;;11.30;;
62179;SDS011;48172;53.374;10.722;2022-08-19T09:20:45;12.07;;;10.18;;
62179;SDS011;48172;53.374;10.722;2022-08-19T09:23:13;12.95;;;10.50;;
62179;SDS011;48172;53.374;10.722;2022-08-19T09:25:40;15.27;;;11.63;;
62179;SDS011;48172;53.374;10.722;2022-08-19T09:28:07;14.18;;;9.88;;
62179;SDS011;48172;53.374;10.722;2022-08-19T09:30:52;15.18;;;11.18;;
62179;SDS011;48172;53.374;10.722;2022-08-19T09:33:19;15.18;;;9.75;;
62179;SDS011;48172;53.374;10.722;2022-08-19T09:35:46;14.65;;;10.57;;
62179;SDS011;48172;53.374;10.722;2022-08-19T09:38:18;12.93;;;10.63;;
62179;SDS011;48172;53.374;10.722;2022-08-19T09:40:46;16.90;;;12.10;;
62179;SDS011;48172;53.374;10.722;2022-08-19T09:43:12;13.80;;;11.13;;
62179;SDS011;48172;53.374;10.722;2022-08-19T09:45:39;14.70;;;11.23;;
62179;SDS011;48172;53.374;10.722;2022-08-19T09:48:06;11.35;;;8.90;;
62179;SDS011;48172;53.374;10.722;2022-08-19T09:50:37;13.20;;;9.10;;
62179;SDS011;48172;53.374;10.722;2022-08-19T09:53:17;12.95;;;9.57;;
62179;SDS011;48172;53.374;10.722;2022-08-19T09:55:45;13.02;;;9.18;;
62179;SDS011;48172;53.374;10.722;2022-08-19T09:58:11;12.85;;;9.05;;
62179;SDS011;48172;53.374;10.722;2022-08-19T10:00:38;9.88;;;7.78;;
62179;SDS011;48172;53.374;10.722;2022-08-19T10:03:04;12.80;;;10.57;;
62179;SDS011;48172;53.374;10.722;2022-08-19T10:05:33;11.77;;;10.57;;
62179;SDS011;48172;53.374;10.722;2022-08-19T10:08:24;12.98;;;10.18;;
62179;SDS011;48172;53.374;10.722;2022-08-19T10:10:56;126.25;;;93.53;;
62179;SDS011;48172;53.374;10.722;2022-08-19T10:13:26;90.10;;;71.55;;
62179;SDS011;48172;53.374;10.722;2022-08-19T10:15:54;41.17;;;35.55;;
62179;SDS011;48172;53.374;10.722;2022-08-19T10:18:23;113.30;;;70.50;;
62179;SDS011;48172;53.374;10.722;2022-08-19T10:20:51;132.90;;;92.50;;
62179;SDS011;48172;53.374;10.722;2022-08-19T10:23:20;71.78;;;57.60;;
62179;SDS011;48172;53.374;10.722;2022-08-19T10:25:47;69.25;;;53.83;;
62179;SDS011;48172;53.374;10.722;2022-08-19T10:28:16;139.48;;;92.63;;
62179;SDS011;48172;53.374;10.722;2022-08-19T10:58:36;20.95;;;15.98;;
62179;SDS011;48172;53.374;10.722;2022-08-19T11:01:02;20.95;;;14.88;;
62179;SDS011;48172;53.374;10.722;2022-08-19T11:03:29;26.73;;;18.50;;
62179;SDS011;48172;53.374;10.722;2022-08-19T11:06:00;26.88;;;17.25;;
62179;SDS011;48172;53.374;10.722;2022-08-19T11:08:27;24.27;;;16.85;;
62179;SDS011;48172;53.374;10.722;2022-08-19T11:10:54;22.60;;;15.27;;
62179;SDS011;48172;53.374;10.722;2022-08-19T11:13:23;21.85;;;16.33;;
62179;SDS011;48172;53.374;10.722;2022-08-19T11:16:01;21.00;;;15.43;;
62179;SDS011;48172;53.374;10.722;2022-08-19T11:18:34;20.20;;;15.57;;
62179;SDS011;48172;53.374;10.722;2022-08-19T11:21:15;23.08;;;15.63;;
62179;SDS011;48172;53.374;10.722;2022-08-19T11:23:54;25.42;;;16.38;;
62179;SDS011;48172;53.374;10.722;2022-08-19T11:26:22;21.83;;;14.70;;
62179;SDS011;48172;53.374;10.722;2022-08-19T11:28:52;23.02;;;15.27;;
62179;SDS011;48172;53.374;10.722;2022-08-19T11:31:24;20.92;;;15.18;;
62179;SDS011;48172;53.374;10.722;2022-08-19T11:33:56;27.33;;;15.20;;
62179;SDS011;48172;53.374;10.722;2022-08-19T11:36:23;22.65;;;15.68;;
62179;SDS011;48172;53.374;10.722;2022-08-19T11:38:50;23.20;;;15.02;;
62179;SDS011;48172;53.374;10.722;2022-08-19T11:41:17;19.17;;;14.07;;
62179;SDS011;48172;53.374;10.722;2022-08-19T11:43:45;21.23;;;13.93;;
62179;SDS011;48172;53.374;10.722;2022-08-19T11:46:13;20.08;;;13.43;;
62179;SDS011;48172;53.374;10.722;2022-08-19T11:48:42;16.95;;;13.13;;
62179;SDS011;48172;53.374;10.722;2022-08-19T11:51:10;16.42;;;11.93;;
62179;SDS011;48172;53.374;10.722;2022-08-19T11:53:39;20.33;;;13.82;;
62179;SDS011;48172;53.374;10.722;2022-08-19T11:56:07;18.35;;;11.90;;
62179;SDS011;48172;53.374;10.722;2022-08-19T11:58:35;18.10;;;11.88;;
62179;SDS011;48172;53.374;10.722;2022-08-19T12:01:04;15.55;;;12.35;;
62179;SDS011;48172;53.374;10.722;2022-08-19T12:03:33;13.57;;;10.35;;
62179;SDS011;48172;53.374;10.722;2022-08-19T12:06:06;15.90;;;11.35;;
62179;SDS011;48172;53.374;10.722;2022-08-19T12:08:34;18.45;;;11.20;;
62179;SDS011;48172;53.374;10.722;2022-08-19T12:11:01;14.57;;;11.05;;
62179;SDS011;48172;53.374;10.722;2022-08-19T12:13:29;14.65;;;10.07;;
62179;SDS011;48172;53.374;10.722;2022-08-19T12:15:56;14.57;;;11.05;;
62179;SDS011;48172;53.374;10.722;2022-08-19T12:18:24;14.40;;;9.38;;
62179;SDS011;48172;53.374;10.722;2022-08-19T12:20:51;14.82;;;10.65;;
62179;SDS011;48172;53.374;10.722;2022-08-19T12:23:20;14.77;;;10.00;;
62179;SDS011;48172;53.374;10.722;2022-08-19T12:25:47;14.63;;;10.48;;
62179;SDS011;48172;53.374;10.722;2022-08-19T12:28:18;13.98;;;9.27;;
62179;SDS011;48172;53.374;10.722;2022-08-19T12:30:47;12.27;;;9.18;;
62179;SDS011;48172;53.374;10.722;2022-08-19T12:33:16;11.80;;;9.40;;
62179;SDS011;48172;53.374;10.722;2022-08-19T12:35:50;13.45;;;9.80;;
62179;SDS011;48172;53.374;10.722;2022-08-19T12:38:18;12.02;;;9.20;;
62179;SDS011;48172;53.374;10.722;2022-08-19T12:40:45;16.33;;;8.98;;
62179;SDS011;48172;53.374;10.722;2022-08-19T12:43:13;17.15;;;9.93;;
62179;SDS011;48172;53.374;10.722;2022-08-19T12:45:41;16.85;;;10.82;;
62179;SDS011;48172;53.374;10.722;2022-08-19T12:48:09;17.63;;;11.23;;
62179;SDS011;48172;53.374;10.722;2022-08-19T12:50:55;20.10;;;14.82;;
62179;SDS011;48172;53.374;10.722;2022-08-19T12:53:25;17.42;;;12.77;;
62179;SDS011;48172;53.374;10.722;2022-08-19T12:55:56;20.20;;;15.75;;
62179;SDS011;48172;53.374;10.722;2022-08-19T12:58:23;20.83;;;16.40;;
62179;SDS011;48172;53.374;10.722;2022-08-19T13:00:52;20.77;;;14.68;;
62179;SDS011;48172;53.374;10.722;2022-08-19T13:03:19;17.42;;;12.40;;
62179;SDS011;48172;53.374;10.722;2022-08-19T13:05:50;17.27;;;12.32;;
62179;SDS011;48172;53.374;10.722;2022-08-19T13:08:16;17.35;;;11.45;;
62179;SDS011;48172;53.374;10.722;2022-08-19T13:10:43;19.33;;;11.77;;
62179;SDS011;48172;53.374;10.722;2022-08-19T13:13:10;18.30;;;12.07;;
62179;SDS011;48172;53.374;10.722;2022-08-19T13:15:37;14.45;;;10.52;;
62179;SDS011;48172;53.374;10.722;2022-08-19T13:18:11;15.65;;;10.57;;
62179;SDS011;48172;53.374;10.722;2022-08-19T13:20:39;16.00;;;10.07;;
62179;SDS011;48172;53.374;10.722;2022-08-19T13:23:18;15.45;;;10.50;;
62179;SDS011;48172;53.374;10.722;2022-08-19T13:25:44;12.13;;;9.38;;
62179;SDS011;48172;53.374;10.722;2022-08-19T13:28:13;13.43;;;9.07;;
62179;SDS011;48172;53.374;10.722;2022-08-19T13:30:41;11.88;;;9.85;;
62179;SDS011;48172;53.374;10.722;2022-08-19T13:33:26;12.00;;;9.68;;
62179;SDS011;48172;53.374;10.722;2022-08-19T13:35:58;10.82;;;9.10;;
62179;SDS011;48172;53.374;10.722;2022-08-19T13:38:27;10.33;;;8.13;;
62179;SDS011;48172;53.374;10.722;2022-08-19T13:40:54;11.10;;;8.45;;
62179;SDS011;48172;53.374;10.722;2022-08-19T13:43:22;9.88;;;7.80;;
62179;SDS011;48172;53.374;10.722;2022-08-19T13:45:54;11.35;;;8.45;;
62179;SDS011;48172;53.374;10.722;2022-08-19T13:48:24;10.82;;;8.90;;
62179;SDS011;48172;53.374;10.722;2022-08-19T13:50:53;11.43;;;8.90;;
62179;SDS011;48172;53.374;10.722;2022-08-19T13:53:20;9.98;;;8.07;;
62179;SDS011;48172;53.374;10.722;2022-08-19T13:55:47;8.75;;;7.82;;
62179;SDS011;48172;53.374;10.722;2022-08-19T13:58:16;11.98;;;8.75;;
62179;SDS011;48172;53.374;10.722;2022-08-19T14:00:43;10.25;;;8.02;;
62179;SDS011;48172;53.374;10.722;2022-08-19T14:03:11;10.63;;;8.00;;
62179;SDS011;48172;53.374;10.722;2022-08-19T14:05:38;9.70;;;8.18;;
62179;SDS011;48172;53.374;10.722;2022-08-19T14:08:05;8.00;;;7.20;;
62179;SDS011;48172;53.374;10.722;2022-08-19T14:10:32;9.70;;;8.38;;
62179;SDS011;48172;53.374;10.722;2022-08-19T14:13:01;8.45;;;7.63;;
62179;SDS011;48172;53.374;10.722;2022-08-19T14:15:30;8.20;;;7.30;;
62179;SDS011;48172;53.374;10.722;2022-08-19T14:17:58;8.10;;;7.28;;
62179;SDS011;48172;53.374;10.722;2022-08-19T14:20:25;8.43;;;7.32;;
62179;SDS011;48172;53.374;10.722;2022-08-19T14:22:53;8.10;;;7.30;;
62179;SDS011;48172;53.374;10.722;2022-08-19T14:25:24;8.68;;;7.70;;
62179;SDS011;48172;53.374;10.722;2022-08-19T14:27:53;7.68;;;6.88;;
62179;SDS011;48172;53.374;10.722;2022-08-19T14:30:29;7.97;;;7.18;;
62179;SDS011;48172;53.374;10.722;2022-08-19T14:32:59;7.55;;;6.85;;
62179;SDS011;48172;53.374;10.722;2022-08-19T14:35:27;10.05;;;7.95;;
62179;SDS011;48172;53.374;10.722;2022-08-19T14:37:55;8.20;;;7.20;;
62179;SDS011;48172;53.374;10.722;2022-08-19T14:40:26;7.75;;;7.03;;
62179;SDS011;48172;53.374;10.722;2022-08-19T14:42:58;7.53;;;6.82;;
62179;SDS011;48172;53.374;10.722;2022-08-19T14:45:31;7.40;;;6.57;;
62179;SDS011;48172;53.374;10.722;2022-08-19T14:48:01;7.50;;;6.80;;
62179;SDS011;48172;53.374;10.722;2022-08-19T14:50:28;7.28;;;6.68;;
62179;SDS011;48172;53.374;10.722;2022-08-19T14:53:02;8.20;;;6.82;;
62179;SDS011;48172;53.374;10.722;2022-08-19T14:55:40;7.85;;;6.80;;
62179;SDS011;48172;53.374;10.722;2022-08-19T14:58:08;9.35;;;7.15;;
62179;SDS011;48172;53.374;10.722;2022-08-19T15:00:54;7.80;;;7.03;;
62179;SDS011;48172;53.374;10.722;2022-08-19T15:03:21;8.13;;;7.32;;
62179;SDS011;48172;53.374;10.722;2022-08-19T15:05:48;8.27;;;7.47;;
62179;SDS011;48172;53.374;10.722;2022-08-19T15:08:14;7.78;;;7.00;;
62179;SDS011;48172;53.374;10.722;2022-08-19T15:10:41;7.10;;;6.40;;
62179;SDS011;48172;53.374;10.722;2022-08-19T15:13:07;8.18;;;6.88;;
62179;SDS011;48172;53.374;10.722;2022-08-19T15:15:35;7.50;;;6.80;;
62179;SDS011;48172;53.374;10.722;2022-08-19T15:18:02;7.68;;;6.78;;
62179;SDS011;48172;53.374;10.722;2022-08-19T15:20:29;7.35;;;6.65;;